Time;durP1;ratioP1;P1;durP2;ratioP2;P2;SDS_P1;SDS_P2;PMS_P1;PMS_P2;Temp;Humidity;BMP_temperature;BMP_pressure;BME280_temperature;BME280_humidity;BME280_pressure;Samples;Min_cycle;Max_cycle;Signal;HPM_P1;HPM_P2
2022/11/29 00:08:20;;;;;;;5.43;3.15;;;-0.20;99.90;;;;;;20219246;23;20122;-54
2022/11/29 00:18:22;;;;;;;3.85;2.03;;;-0.30;99.90;;;;;;20221176;23;20061;-59
2022/11/29 00:28:25;;;;;;;4.55;2.33;;;-0.40;99.90;;;;;;20239569;23;20060;-54
2022/11/29 00:38:28;;;;;;;5.13;2.42;;;-0.40;99.90;;;;;;20235264;23;20062;-57
2022/11/29 00:48:31;;;;;;;5.32;2.00;;;-0.50;99.90;;;;;;20202118;23;20489;-59
2022/11/29 00:58:35;;;;;;;3.92;2.00;;;-0.60;99.90;;;;;;20254521;23;20079;-53
2022/11/29 01:08:38;;;;;;;3.38;1.90;;;-0.50;99.90;;;;;;20255181;23;20516;-60
2022/11/29 01:18:42;;;;;;;3.05;1.73;;;-0.50;99.90;;;;;;20242997;23;20065;-52
2022/11/29 01:28:46;;;;;;;3.33;1.60;;;-0.40;99.90;;;;;;20835637;23;20038;-58
2022/11/29 01:39:04;;;;;;;3.58;1.40;;;-0.30;99.90;;;;;;20191261;23;20588;-60
2022/11/29 01:59:33;;;;;;;3.13;1.65;;;-0.20;99.90;;;;;;20207223;23;20394;-59
2022/11/29 02:09:36;;;;;;;3.30;1.27;;;-0.10;99.90;;;;;;20232837;23;20053;-53
2022/11/29 02:20:10;;;;;;;1.60;0.98;;;0.00;99.90;;;;;;20240016;23;20058;-60
2022/11/29 02:30:54;;;;;;;4.38;2.40;;;-0.10;99.90;;;;;;20273403;23;20512;-54
2022/11/29 02:41:47;;;;;;;1.63;1.00;;;-0.10;99.90;;;;;;20224759;23;20136;-59
2022/11/29 02:52:14;;;;;;;2.95;1.10;;;-0.20;99.90;;;;;;20183404;23;20058;-53
2022/11/29 03:02:41;;;;;;;1.42;1.00;;;-0.10;99.90;;;;;;20125783;23;20058;-60
2022/11/29 03:12:48;;;;;;;1.92;0.90;;;0.00;99.90;;;;;;20084139;23;20058;-53
2022/11/29 03:23:16;;;;;;;3.22;0.98;;;0.10;99.90;;;;;;20198210;23;20133;-53
2022/11/29 03:33:34;;;;;;;4.07;1.00;;;0.10;99.90;;;;;;20245276;23;20123;-54
2022/11/29 03:44:01;;;;;;;1.67;0.93;;;0.20;99.90;;;;;;20277596;23;20090;-59
2022/11/29 03:54:10;;;;;;;1.88;0.93;;;0.30;99.90;;;;;;20241819;23;20560;-51
2022/11/29 04:04:28;;;;;;;1.25;1.02;;;0.30;99.90;;;;;;20234854;23;20129;-59
2022/11/29 04:15:02;;;;;;;1.88;1.10;;;0.30;99.90;;;;;;20242276;23;20114;-55
2022/11/29 04:25:32;;;;;;;3.78;1.10;;;0.30;99.90;;;;;;20230938;23;20512;-57
2022/11/29 04:35:47;;;;;;;2.03;1.13;;;0.20;99.90;;;;;;20261995;23;20452;-56
2022/11/29 04:46:19;;;;;;;2.67;1.40;;;0.30;99.90;;;;;;20227723;23;20110;-59
2022/11/29 04:56:40;;;;;;;5.57;3.38;;;0.10;99.90;;;;;;20219071;23;20057;-53
2022/11/29 05:07:09;;;;;;;3.78;2.28;;;-0.30;99.90;;;;;;20253509;23;20058;-59
2022/11/29 05:17:50;;;;;;;2.85;1.50;;;-0.50;99.90;;;;;;20225777;23;20101;-54
2022/11/29 05:28:01;;;;;;;2.93;1.70;;;-0.30;99.90;;;;;;20852727;23;20057;-55
2022/11/29 05:38:33;;;;;;;3.58;1.58;;;-0.10;99.90;;;;;;20231740;23;20054;-59
2022/11/29 05:48:44;;;;;;;2.58;1.40;;;0.10;99.90;;;;;;20268878;23;20053;-55
2022/11/29 05:58:51;;;;;;;3.57;0.87;;;0.10;99.90;;;;;;20236865;23;20065;-59
2022/11/29 06:09:06;;;;;;;2.78;1.20;;;0.20;99.90;;;;;;20291105;23;20041;-52
2022/11/29 06:19:36;;;;;;;2.78;1.20;;;0.30;99.90;;;;;;20213559;23;20134;31
2022/11/29 06:29:45;;;;;;;2.50;1.13;;;0.40;99.90;;;;;;20163169;23;20472;-51
2022/11/29 06:39:48;;;;;;;1.92;1.25;;;0.40;99.90;;;;;;20138124;23;20062;-51
2022/11/29 06:50:12;;;;;;;3.30;1.80;;;0.50;99.90;;;;;;20251967;23;20572;-53
2022/11/29 07:00:16;;;;;;;2.00;1.17;;;0.40;99.90;;;;;;20243161;23;20064;-51
2022/11/29 07:10:19;;;;;;;2.50;1.05;;;0.40;99.90;;;;;;20173841;23;1990430;-57
2022/11/29 07:20:36;;;;;;;1.48;0.85;;;0.70;99.90;;;;;;20246559;23;20492;-55
2022/11/29 07:30:59;;;;;;;1.38;0.90;;;0.80;99.90;;;;;;20237628;23;20118;-59
2022/11/29 07:41:20;;;;;;;2.22;0.90;;;1.10;99.90;;;;;;20249581;23;20778;-54
2022/11/29 07:51:23;;;;;;;1.70;0.90;;;1.20;99.90;;;;;;20238743;23;20132;-59
2022/11/29 08:01:58;;;;;;;1.40;0.95;;;1.40;99.90;;;;;;20217381;23;20582;-60
2022/11/29 08:12:06;;;;;;;2.15;1.25;;;1.60;99.90;;;;;;20233145;23;20057;31
2022/11/29 08:22:10;;;;;;;2.58;1.00;;;1.80;99.90;;;;;;20093676;23;20062;-59
2022/11/29 08:32:12;;;;;;;2.65;1.17;;;1.80;99.90;;;;;;20187007;24;20057;-56
2022/11/29 08:42:15;;;;;;;2.80;1.33;;;2.00;99.90;;;;;;20252810;23;20432;-60
2022/11/29 09:02:38;;;;;;;2.30;1.20;;;2.30;99.90;;;;;;20222963;23;20054;-60
2022/11/29 09:12:45;;;;;;;1.60;1.00;;;2.50;99.90;;;;;;20245053;23;20415;31
2022/11/29 09:22:48;;;;;;;2.38;1.02;;;2.60;99.90;;;;;;20177221;23;20061;-51
2022/11/29 09:32:50;;;;;;;2.85;0.98;;;2.40;99.90;;;;;;20264532;23;20524;-57
2022/11/29 09:42:59;;;;;;;2.30;0.90;;;2.10;99.90;;;;;;20235219;23;20123;-53
2022/11/29 09:53:13;;;;;;;1.90;1.00;;;2.00;99.90;;;;;;20236927;23;20058;-59
2022/11/29 10:03:25;;;;;;;1.88;0.82;;;2.00;99.90;;;;;;20222536;23;20050;-52
2022/11/29 10:13:34;;;;;;;1.35;0.60;;;2.10;99.90;;;;;;20229496;23;20057;-59
2022/11/29 10:24:13;;;;;;;1.45;0.60;;;2.50;99.90;;;;;;20190137;23;20106;-59
2022/11/29 10:34:19;;;;;;;1.20;0.75;;;2.80;99.90;;;;;;20176578;23;20053;-64
2022/11/29 10:44:23;;;;;;;1.30;0.90;;;3.00;99.90;;;;;;20167844;23;20053;-53
2022/11/29 10:54:41;;;;;;;3.40;2.17;;;3.10;99.90;;;;;;20216180;23;20049;-60
2022/11/29 11:04:45;;;;;;;3.25;1.90;;;3.10;99.90;;;;;;20245507;23;20119;-53
2022/11/29 11:14:50;;;;;;;3.20;2.03;;;2.90;99.90;;;;;;20207580;23;20061;-57
2022/11/29 11:25:03;;;;;;;2.78;1.90;;;3.20;99.90;;;;;;20261881;23;20054;-58
2022/11/29 11:35:21;;;;;;;3.70;2.40;;;3.10;99.90;;;;;;20228444;23;20057;-54
2022/11/29 11:45:32;;;;;;;2.28;1.80;;;3.20;99.90;;;;;;20223259;23;20136;-59
2022/11/29 11:55:57;;;;;;;3.65;1.92;;;3.10;99.90;;;;;;20172044;24;20577;-59
2022/11/29 12:06:17;;;;;;;2.83;1.88;;;3.30;99.90;;;;;;20169698;23;20114;-60
2022/11/29 12:16:45;;;;;;;4.03;2.20;;;3.40;99.90;;;;;;20101875;23;20066;-59
2022/11/29 12:26:48;;;;;;;2.85;1.80;;;3.30;99.90;;;;;;20148420;23;20070;-61
2022/11/29 12:37:16;;;;;;;3.00;2.20;;;3.30;99.90;;;;;;20248234;23;20066;-59
2022/11/29 12:47:43;;;;;;;3.83;2.33;;;3.30;99.90;;;;;;20348266;23;20058;-48
2022/11/29 12:57:53;;;;;;;10.32;6.78;;;3.10;99.90;;;;;;20216283;23;20062;-60
2022/11/29 13:08:14;;;;;;;11.27;5.93;;;2.80;99.90;;;;;;20236857;23;20125;-57
2022/11/29 13:18:26;;;;;;;6.07;4.20;;;2.70;99.90;;;;;;20230051;23;20049;-60
2022/11/29 13:28:36;;;;;;;17.50;4.18;;;2.60;99.90;;;;;;20295099;23;20110;-56
2022/11/29 13:38:53;;;;;;;5.82;2.75;;;2.50;99.90;;;;;;20240201;23;20442;-52
2022/11/29 13:48:55;;;;;;;30.63;4.13;;;2.20;99.90;;;;;;20247820;23;20028;-59
2022/11/29 13:59:31;;;;;;;4.72;2.80;;;2.00;99.90;;;;;;20206657;23;20516;-58
2022/11/29 14:10:03;;;;;;;3.93;2.47;;;2.10;99.90;;;;;;20209847;23;20497;31
2022/11/29 14:20:24;;;;;;;4.15;3.08;;;2.10;99.90;;;;;;20164296;23;20276;-57
2022/11/29 14:30:43;;;;;;;3.85;3.00;;;2.10;99.90;;;;;;20246443;23;20508;31
2022/11/29 14:41:24;;;;;;;7.35;3.13;;;2.00;99.90;;;;;;20074282;23;20066;-58
2022/11/29 14:51:32;;;;;;;31.42;5.00;;;1.90;99.90;;;;;;20172830;23;20050;-59
2022/11/29 15:01:52;;;;;;;7.72;3.00;;;1.70;99.90;;;;;;20089805;23;20074;-60
2022/11/29 15:12:19;;;;;;;53.80;4.87;;;1.60;99.90;;;;;;20204061;23;20065;-60
2022/11/29 15:22:47;;;;;;;8.30;3.22;;;1.50;99.90;;;;;;20201429;23;20054;-59
2022/11/29 15:32:51;;;;;;;3.85;2.80;;;1.30;99.90;;;;;;20199452;23;20435;-60
2022/11/29 15:43:20;;;;;;;83.63;5.55;;;1.20;99.90;;;;;;20219587;23;20098;-59
2022/11/29 15:53:37;;;;;;;3.28;2.30;;;1.10;99.90;;;;;;20185847;23;1412809;-57
2022/11/29 16:03:43;;;;;;;4.28;2.40;;;1.00;99.90;;;;;;20270185;23;20531;-59
2022/11/29 16:14:22;;;;;;;3.30;2.35;;;0.90;99.90;;;;;;20249689;23;20058;-60
2022/11/29 16:24:25;;;;;;;3.13;1.98;;;0.80;99.90;;;;;;20237748;23;20468;-59
2022/11/29 16:34:31;;;;;;;6.05;2.80;;;0.80;99.90;;;;;;20264920;23;20054;-51
2022/11/29 16:44:40;;;;;;;4.03;2.58;;;0.60;99.90;;;;;;20236803;23;20070;-59
2022/11/29 16:54:47;;;;;;;157.88;6.15;;;0.50;99.90;;;;;;20223309;23;20058;31
2022/11/29 17:04:50;;;;;;;3.13;1.90;;;0.40;99.90;;;;;;20177969;23;20134;-59
2022/11/29 17:14:53;;;;;;;3.72;2.00;;;0.20;99.90;;;;;;20244814;23;20155;-57
2022/11/29 17:24:55;;;;;;;2.92;1.80;;;-0.10;99.90;;;;;;20221184;23;20118;-58
2022/11/29 17:34:58;;;;;;;1.05;0.43;;;-0.20;99.90;;;;;;20387746;23;20053;-56
2022/11/29 17:45:00;;;;;;;0.20;0.10;;;-0.40;99.90;;;;;;20256912;23;20061;-58
2022/11/29 17:55:03;;;;;;;0.10;0.10;;;-0.50;99.90;;;;;;20179328;23;20054;-55
2022/11/29 18:05:05;;;;;;;0.30;0.10;;;-0.50;99.90;;;;;;20253214;23;20061;-60
2022/11/29 18:15:08;;;;;;;0.10;0.00;;;-0.80;99.90;;;;;;20235983;23;20123;-57
2022/11/29 18:25:10;;;;;;;0.15;0.10;;;-1.10;99.90;;;;;;20219646;23;20139;-58
2022/11/29 18:35:13;;;;;;;0.20;0.00;;;-1.20;99.90;;;;;;20259313;23;20041;-57
2022/11/29 18:45:16;;;;;;;0.57;0.10;;;-1.30;99.90;;;;;;20177748;23;20057;-54
2022/11/29 18:55:18;;;;;;;0.00;0.00;;;-1.30;99.90;;;;;;20244298;23;20050;-57
2022/11/29 19:05:21;;;;;;;0.10;0.00;;;-1.50;99.90;;;;;;20247279;23;20062;-53
2022/11/29 19:15:23;;;;;;;0.05;0.00;;;-1.60;99.90;;;;;;20226310;23;20421;-49
2022/11/29 19:25:26;;;;;;;0.00;0.00;;;-1.60;99.90;;;;;;20222512;23;20082;-52
2022/11/29 19:35:29;;;;;;;0.00;0.00;;;-1.60;99.90;;;;;;20144137;23;20106;-56
2022/11/29 19:45:52;;;;;;;0.10;0.00;;;-1.60;99.90;;;;;;20171163;23;20105;-60
2022/11/29 19:55:55;;;;;;;0.00;0.00;;;-1.60;99.90;;;;;;20248975;23;20126;-52
2022/11/29 20:05:58;;;;;;;0.20;0.10;;;-1.60;99.90;;;;;;20241894;23;20127;-59
2022/11/29 20:16:09;;;;;;;0.40;0.10;;;-1.70;99.90;;;;;;20222182;23;20076;-56
2022/11/29 20:26:22;;;;;;;0.10;0.10;;;-1.90;99.90;;;;;;20682279;23;20057;-53
2022/11/29 20:37:06;;;;;;;0.75;0.10;;;-2.10;99.90;;;;;;20219298;23;20062;-58
2022/11/29 20:47:20;;;;;;;0.20;0.10;;;-2.20;99.90;;;;;;20218212;23;20445;-55
2022/11/29 20:57:22;;;;;;;0.60;0.20;;;-2.30;99.90;;;;;;20258736;23;20061;-59
2022/11/29 21:07:24;;;;;;;1.80;0.45;;;-2.30;99.90;;;;;;20192217;23;20146;-50
2022/11/29 21:17:27;;;;;;;0.65;0.30;;;-2.10;99.90;;;;;;20238505;23;20065;-59
2022/11/29 21:27:33;;;;;;;1.38;0.30;;;-1.80;99.90;;;;;;20277620;23;20058;-57
2022/11/29 21:37:37;;;;;;;0.20;0.10;;;-1.70;99.90;;;;;;20228248;23;20416;-57
2022/11/29 21:47:39;;;;;;;0.30;0.17;;;-1.40;99.90;;;;;;20252679;23;20045;-59
2022/11/29 21:57:57;;;;;;;0.43;0.30;;;-0.90;99.90;;;;;;20205877;23;20065;-60
2022/11/29 22:08:00;;;;;;;0.60;0.20;;;-0.80;99.90;;;;;;20089083;23;20501;-58
2022/11/29 22:18:02;;;;;;;1.88;0.80;;;-1.20;99.90;;;;;;20224377;23;20126;-59
2022/11/29 22:28:04;;;;;;;1.60;0.80;;;-1.50;99.90;;;;;;20251664;24;20568;-59
2022/11/29 22:38:07;;;;;;;0.70;0.40;;;-1.70;99.90;;;;;;20167342;23;20050;-58
2022/11/29 22:48:10;;;;;;;0.60;0.30;;;-1.90;99.90;;;;;;20140249;24;20062;-59
2022/11/29 22:58:12;;;;;;;0.43;0.20;;;-1.90;99.90;;;;;;20231564;23;20061;-57
2022/11/29 23:08:14;;;;;;;2.95;0.30;;;-1.80;99.90;;;;;;20261224;23;20216;-58
2022/11/29 23:18:17;;;;;;;0.98;0.60;;;-1.70;99.90;;;;;;20229291;23;20061;-58
2022/11/29 23:28:20;;;;;;;1.13;0.55;;;-1.60;99.90;;;;;;20212069;23;20568;-58
2022/11/29 23:38:23;;;;;;;0.65;0.40;;;-1.80;99.90;;;;;;20252428;23;20078;-57
2022/11/29 23:48:25;;;;;;;0.57;0.30;;;-1.90;99.90;;;;;;20214086;23;20057;-57
2022/11/29 23:58:28;;;;;;;1.58;0.35;;;-1.90;99.90;;;;;;20187350;23;20065;-60
